Time;durP1;ratioP1;P1;durP2;ratioP2;P2;SDS_P1;SDS_P2;PMS_P1;PMS_P2;Temp;Humidity;BMP_temperature;BMP_pressure;BME280_temperature;BME280_humidity;BME280_pressure;Samples;Min_cycle;Max_cycle;Signal;HPM_P1;HPM_P2
2023/10/31 00:01:05;;;;;;;2.53;2.20;;;11.00;99.90;;;;;;5002237;28;20092;-32
2023/10/31 00:03:31;;;;;;;2.83;2.50;;;10.90;99.90;;;;;;5003965;28;20422;-33
2023/10/31 00:05:57;;;;;;;2.45;2.20;;;10.90;99.90;;;;;;5005266;28;20034;-32
2023/10/31 00:08:24;;;;;;;3.13;2.55;;;10.90;99.90;;;;;;5001030;28;20479;-32
2023/10/31 00:10:50;;;;;;;2.55;2.20;;;10.90;99.90;;;;;;5001386;28;20021;-32
2023/10/31 00:13:15;;;;;;;2.42;2.22;;;10.80;99.90;;;;;;4997095;28;20508;-35
2023/10/31 00:15:41;;;;;;;3.42;2.20;;;10.80;99.90;;;;;;5000584;28;20091;-36
2023/10/31 00:18:07;;;;;;;2.13;1.90;;;10.80;99.90;;;;;;4986298;28;20026;-31
2023/10/31 00:20:32;;;;;;;2.30;1.95;;;10.80;99.90;;;;;;5000125;28;20022;-31
2023/10/31 00:22:58;;;;;;;2.55;1.80;;;10.70;99.90;;;;;;5004062;28;20141;-38
2023/10/31 00:25:24;;;;;;;2.40;2.10;;;10.80;99.90;;;;;;5001510;28;20042;-38
2023/10/31 00:27:50;;;;;;;2.03;1.52;;;10.70;99.90;;;;;;5001071;28;20029;-39
2023/10/31 00:30:16;;;;;;;3.00;1.52;;;10.70;99.90;;;;;;5001191;28;20032;-37
2023/10/31 00:32:41;;;;;;;1.08;1.08;;;10.70;99.90;;;;;;5001652;28;20050;-35
2023/10/31 00:35:07;;;;;;;1.40;1.30;;;10.60;99.90;;;;;;5001453;28;20044;-36
2023/10/31 00:37:33;;;;;;;1.52;1.10;;;10.70;99.90;;;;;;5003249;28;20025;-38
2023/10/31 00:39:58;;;;;;;1.55;1.45;;;10.60;99.90;;;;;;5000980;28;20049;-38
2023/10/31 00:42:24;;;;;;;1.23;0.90;;;10.60;99.90;;;;;;5001868;28;20487;-38
2023/10/31 00:44:49;;;;;;;1.13;1.13;;;10.60;99.90;;;;;;4985216;28;20065;-36
2023/10/31 00:47:15;;;;;;;1.42;1.10;;;10.60;99.90;;;;;;5004462;28;20044;-38
2023/10/31 00:49:41;;;;;;;1.30;1.20;;;10.60;99.90;;;;;;4997500;28;20525;-35
2023/10/31 00:52:06;;;;;;;1.30;1.10;;;10.50;99.90;;;;;;5002661;28;20029;-37
2023/10/31 00:54:32;;;;;;;1.00;1.00;;;10.50;99.90;;;;;;5001462;28;20088;-38
2023/10/31 00:56:58;;;;;;;1.33;1.00;;;10.50;99.90;;;;;;4999682;28;20263;-38
2023/10/31 00:59:23;;;;;;;1.40;1.30;;;10.50;99.90;;;;;;5001751;28;20037;-39
2023/10/31 01:01:49;;;;;;;1.25;1.15;;;10.50;99.90;;;;;;5001086;28;20065;-40
2023/10/31 01:04:15;;;;;;;1.23;1.13;;;10.50;99.90;;;;;;5005910;28;20037;-38
2023/10/31 01:06:42;;;;;;;1.00;1.00;;;10.50;99.90;;;;;;5004740;28;20044;-35
2023/10/31 01:09:08;;;;;;;1.00;1.00;;;10.50;99.90;;;;;;5003135;28;20036;-40
2023/10/31 01:11:34;;;;;;;1.00;1.00;;;10.40;99.90;;;;;;5001308;28;20197;-37
2023/10/31 01:13:59;;;;;;;1.00;0.90;;;10.40;99.90;;;;;;5001079;28;20500;-39
2023/10/31 01:16:25;;;;;;;0.90;0.90;;;10.40;99.90;;;;;;4998230;28;20423;-39
2023/10/31 01:18:51;;;;;;;0.60;0.60;;;10.40;99.90;;;;;;5001776;28;20041;-39
2023/10/31 01:21:16;;;;;;;0.63;0.63;;;10.30;99.90;;;;;;5002976;28;20038;-35
2023/10/31 01:23:42;;;;;;;1.10;0.98;;;10.40;99.90;;;;;;4999630;28;20065;-37
2023/10/31 01:26:07;;;;;;;0.90;0.90;;;10.40;99.90;;;;;;5004807;28;20380;-40
2023/10/31 01:28:33;;;;;;;1.10;1.00;;;10.40;99.90;;;;;;4999837;28;20033;-38
2023/10/31 01:30:59;;;;;;;0.93;0.93;;;10.30;99.90;;;;;;4999450;28;20286;-37
2023/10/31 01:33:24;;;;;;;3.97;2.22;;;10.30;99.90;;;;;;5001019;28;20044;-31
2023/10/31 01:35:50;;;;;;;0.90;0.90;;;10.30;99.90;;;;;;4999805;28;20123;-34
2023/10/31 01:38:15;;;;;;;6.07;2.60;;;10.30;99.90;;;;;;5001107;28;20037;-33
2023/10/31 01:40:42;;;;;;;2.70;1.45;;;10.30;99.90;;;;;;5000739;28;20116;-35
2023/10/31 01:43:07;;;;;;;1.60;1.50;;;10.30;99.90;;;;;;5000542;28;20499;-32
2023/10/31 01:45:33;;;;;;;1.33;1.23;;;10.30;99.90;;;;;;5002246;28;20026;-33
2023/10/31 01:47:58;;;;;;;1.27;1.17;;;10.30;99.90;;;;;;4999431;28;20411;-33
2023/10/31 01:50:24;;;;;;;1.40;1.00;;;10.30;99.90;;;;;;5002482;28;20096;-33
2023/10/31 01:52:51;;;;;;;1.25;1.10;;;10.30;99.90;;;;;;4997232;28;20025;-33
2023/10/31 01:55:17;;;;;;;1.25;1.00;;;10.30;99.90;;;;;;4994514;28;20653;-32
2023/10/31 01:57:45;;;;;;;1.30;1.20;;;10.30;99.90;;;;;;5000386;28;20137;-33
2023/10/31 02:00:12;;;;;;;1.40;1.30;;;10.30;99.90;;;;;;5002675;28;20551;-35
2023/10/31 02:02:42;;;;;;;1.30;1.17;;;10.30;99.90;;;;;;4999935;28;20499;-32
2023/10/31 02:05:08;;;;;;;2.65;1.48;;;10.20;99.90;;;;;;4998696;28;20034;-33
2023/10/31 02:07:33;;;;;;;0.90;0.90;;;10.20;99.90;;;;;;5001505;28;20052;-32
2023/10/31 02:09:59;;;;;;;1.00;1.00;;;10.30;99.90;;;;;;4980998;28;20142;-33
2023/10/31 02:12:32;;;;;;;0.90;0.90;;;10.20;99.90;;;;;;4996491;28;20034;-35
2023/10/31 02:14:58;;;;;;;1.27;1.00;;;10.30;99.90;;;;;;4999396;28;20515;-33
2023/10/31 02:17:23;;;;;;;1.20;1.10;;;10.30;99.90;;;;;;4963407;28;20026;-32
2023/10/31 02:19:49;;;;;;;1.05;0.98;;;10.30;99.90;;;;;;4995817;28;20053;-32
2023/10/31 02:22:14;;;;;;;1.00;1.00;;;10.20;99.90;;;;;;4999484;28;20030;-32
2023/10/31 02:24:40;;;;;;;1.10;1.10;;;10.20;99.90;;;;;;5001350;28;20029;-36
2023/10/31 02:27:05;;;;;;;0.95;0.95;;;10.20;99.90;;;;;;4981371;28;20046;-32
2023/10/31 02:29:31;;;;;;;1.52;1.42;;;10.20;99.90;;;;;;5000121;28;20421;-34
2023/10/31 02:31:57;;;;;;;0.90;0.90;;;10.20;99.90;;;;;;4999543;28;20038;-34
2023/10/31 02:34:22;;;;;;;1.10;1.10;;;10.20;99.90;;;;;;5000089;28;20033;-34
2023/10/31 02:36:48;;;;;;;0.93;0.93;;;10.30;99.90;;;;;;5002163;28;20034;-31
2023/10/31 02:39:14;;;;;;;1.88;1.30;;;10.20;99.90;;;;;;5001966;28;20391;-32
2023/10/31 02:41:40;;;;;;;0.70;0.70;;;10.20;99.90;;;;;;5000973;28;20040;-34
2023/10/31 02:44:05;;;;;;;0.80;0.80;;;10.20;99.90;;;;;;5006392;28;20065;-30
2023/10/31 02:46:31;;;;;;;3.08;2.83;;;10.20;99.90;;;;;;5003278;28;20464;-29
2023/10/31 02:48:59;;;;;;;1.60;1.50;;;10.20;99.90;;;;;;5005309;28;20345;-29
2023/10/31 02:51:25;;;;;;;0.98;0.98;;;10.20;99.90;;;;;;5004224;28;20042;-33
2023/10/31 02:53:51;;;;;;;0.93;0.93;;;10.20;99.90;;;;;;4985517;28;20072;-30
2023/10/31 02:56:16;;;;;;;1.08;1.08;;;10.20;99.90;;;;;;5002229;28;20034;-29
2023/10/31 02:58:42;;;;;;;0.90;0.90;;;10.20;99.90;;;;;;5002322;28;20317;-29
2023/10/31 03:01:08;;;;;;;1.05;0.90;;;10.30;99.90;;;;;;5004354;28;20141;-30
2023/10/31 03:03:34;;;;;;;1.05;0.90;;;10.20;99.90;;;;;;5005594;28;20490;-30
2023/10/31 03:05:59;;;;;;;0.93;0.93;;;10.20;99.90;;;;;;5003011;28;20191;-33
2023/10/31 03:08:25;;;;;;;0.80;0.80;;;10.30;99.90;;;;;;4997337;28;20058;-30
2023/10/31 03:10:51;;;;;;;1.30;1.20;;;10.30;99.90;;;;;;5004216;28;20030;-30
2023/10/31 03:13:17;;;;;;;1.20;1.05;;;10.20;99.90;;;;;;4997176;28;20073;-34
2023/10/31 03:15:43;;;;;;;4.28;2.88;;;10.20;99.90;;;;;;5001112;28;20028;-32
2023/10/31 03:18:10;;;;;;;0.90;0.90;;;10.20;99.90;;;;;;5001537;28;20088;-31
2023/10/31 03:20:35;;;;;;;0.80;0.80;;;10.20;99.90;;;;;;4986923;28;20030;-32
2023/10/31 03:23:01;;;;;;;0.95;0.95;;;10.20;99.90;;;;;;5003722;28;20026;-30
2023/10/31 03:25:26;;;;;;;1.10;1.10;;;10.20;99.90;;;;;;5003892;28;20038;-30
2023/10/31 03:27:52;;;;;;;0.95;0.95;;;10.20;99.90;;;;;;5000732;28;20034;-32
2023/10/31 03:30:18;;;;;;;1.20;1.10;;;10.20;99.90;;;;;;5001960;28;20467;-29
2023/10/31 03:32:43;;;;;;;1.00;1.00;;;10.20;99.90;;;;;;5001451;28;20026;-31
2023/10/31 03:35:09;;;;;;;1.90;0.98;;;10.20;99.90;;;;;;4999951;28;20042;-32
2023/10/31 03:37:36;;;;;;;2.17;1.40;;;10.20;99.90;;;;;;5001393;28;20502;-33
2023/10/31 03:40:01;;;;;;;1.20;1.10;;;10.20;99.90;;;;;;5000368;28;20041;-30
2023/10/31 03:42:27;;;;;;;0.88;0.88;;;10.20;99.90;;;;;;5002130;28;20476;-30
2023/10/31 03:44:53;;;;;;;1.13;1.05;;;10.20;99.90;;;;;;4980680;28;20026;-33
2023/10/31 03:47:18;;;;;;;1.00;1.00;;;10.20;99.90;;;;;;5001653;28;20036;-29
2023/10/31 03:49:44;;;;;;;1.40;0.93;;;10.20;99.90;;;;;;5001317;28;20034;-30
2023/10/31 03:52:10;;;;;;;0.93;0.93;;;10.20;99.90;;;;;;5004574;28;20038;-30
2023/10/31 03:54:35;;;;;;;0.90;0.90;;;10.20;99.90;;;;;;5000193;28;20077;-31
2023/10/31 03:57:01;;;;;;;1.05;0.88;;;10.20;99.90;;;;;;5002478;28;20435;-30
2023/10/31 03:59:27;;;;;;;1.23;1.00;;;10.20;99.90;;;;;;5004923;28;20053;-33
2023/10/31 04:01:52;;;;;;;1.40;1.25;;;10.20;99.90;;;;;;5001489;28;20444;-30
2023/10/31 04:04:20;;;;;;;0.90;0.90;;;10.20;99.90;;;;;;5000926;28;20029;-29
2023/10/31 04:06:49;;;;;;;0.90;0.90;;;10.20;99.90;;;;;;5003703;28;20056;-30
2023/10/31 04:09:14;;;;;;;;;;;10.10;99.90;;;;;;5003131;28;20403;-29
2023/10/31 04:11:41;;;;;;;1.00;0.80;;;10.20;99.90;;;;;;5002144;28;19913;-35
2023/10/31 04:14:06;;;;;;;1.25;1.25;;;10.10;99.90;;;;;;4999117;28;20457;-30
2023/10/31 04:16:37;;;;;;;1.30;0.80;;;10.10;99.90;;;;;;5001792;28;20329;-30
2023/10/31 04:19:02;;;;;;;0.85;0.70;;;10.10;99.90;;;;;;5001200;28;20104;-29
2023/10/31 04:21:28;;;;;;;0.85;0.85;;;10.10;99.90;;;;;;4999802;28;20117;-30
2023/10/31 04:23:54;;;;;;;0.75;0.75;;;10.00;99.90;;;;;;5003390;28;20464;-31
2023/10/31 04:26:19;;;;;;;0.70;0.70;;;10.10;99.90;;;;;;5004854;28;20539;-30
2023/10/31 04:28:45;;;;;;;2.25;1.05;;;10.10;99.90;;;;;;5004260;28;20048;-30
2023/10/31 04:31:10;;;;;;;0.80;0.80;;;10.00;99.90;;;;;;5005539;28;20411;-36
2023/10/31 04:33:36;;;;;;;2.10;1.30;;;10.00;99.90;;;;;;5005751;28;20050;-29
2023/10/31 04:36:02;;;;;;;1.60;1.50;;;10.00;99.90;;;;;;5003969;28;20037;-36
2023/10/31 04:38:28;;;;;;;1.33;1.17;;;10.00;99.90;;;;;;4989083;28;21374;-30
2023/10/31 04:40:53;;;;;;;1.00;0.90;;;9.90;99.90;;;;;;5004980;28;20149;-30
2023/10/31 04:43:19;;;;;;;0.82;0.82;;;9.90;99.90;;;;;;4999466;28;20484;-30
2023/10/31 04:45:44;;;;;;;0.80;0.80;;;9.90;99.90;;;;;;5006569;28;20048;-30
2023/10/31 04:48:10;;;;;;;1.10;1.10;;;9.90;99.90;;;;;;4987603;28;20030;-32
2023/10/31 04:50:36;;;;;;;0.82;0.80;;;9.90;99.90;;;;;;5004975;28;20109;-31
2023/10/31 04:53:02;;;;;;;0.90;0.90;;;9.90;99.90;;;;;;5003182;28;20030;-30
2023/10/31 04:55:27;;;;;;;1.50;0.82;;;9.90;99.90;;;;;;5007140;28;20037;-30
2023/10/31 04:57:53;;;;;;;3.60;2.08;;;9.90;99.90;;;;;;5005156;28;20030;-32
2023/10/31 05:00:19;;;;;;;0.77;0.77;;;9.90;99.90;;;;;;5000185;28;20048;-30
2023/10/31 05:02:44;;;;;;;6.00;1.08;;;9.90;99.90;;;;;;5003898;28;20597;-30
2023/10/31 05:05:10;;;;;;;0.70;0.70;;;9.90;99.90;;;;;;5002378;28;20040;-32
2023/10/31 05:07:36;;;;;;;0.85;0.85;;;9.90;99.90;;;;;;5003019;28;20377;-33
2023/10/31 05:10:01;;;;;;;7.57;3.85;;;9.90;99.90;;;;;;5002337;28;20077;-29
2023/10/31 05:12:27;;;;;;;1.50;1.40;;;9.80;99.90;;;;;;5000756;28;20495;-31
2023/10/31 05:14:52;;;;;;;1.30;1.20;;;9.80;99.90;;;;;;5006054;28;20034;-30
2023/10/31 05:17:18;;;;;;;3.42;3.13;;;9.80;99.90;;;;;;5000309;28;20322;-33
2023/10/31 05:19:44;;;;;;;7.28;5.30;;;9.80;99.90;;;;;;5004462;28;20052;-33
2023/10/31 05:22:09;;;;;;;3.30;1.85;;;9.80;99.90;;;;;;5004542;28;20030;-30
2023/10/31 05:24:36;;;;;;;1.52;1.42;;;9.80;99.90;;;;;;5001654;28;20033;-31
2023/10/31 05:27:03;;;;;;;1.10;1.00;;;9.80;99.90;;;;;;4998230;28;20684;-30
2023/10/31 05:29:30;;;;;;;4.05;1.45;;;9.80;99.90;;;;;;5003706;28;20033;-31
2023/10/31 05:31:55;;;;;;;1.00;0.90;;;9.80;99.90;;;;;;5002332;28;20403;-30
2023/10/31 05:34:21;;;;;;;0.80;0.80;;;9.80;99.90;;;;;;5005475;28;20046;-32
2023/10/31 05:36:48;;;;;;;1.27;0.95;;;9.80;99.90;;;;;;5003600;28;20026;-34
2023/10/31 05:39:13;;;;;;;0.80;0.80;;;9.80;99.90;;;;;;5003230;28;20406;-31
2023/10/31 05:41:39;;;;;;;0.90;0.90;;;9.80;99.90;;;;;;5005473;28;20036;-31
2023/10/31 05:44:05;;;;;;;0.88;0.82;;;9.80;99.90;;;;;;5003979;28;20038;-30
2023/10/31 05:46:30;;;;;;;1.10;0.88;;;9.80;99.90;;;;;;5001859;28;20465;-33
2023/10/31 05:48:56;;;;;;;1.65;1.08;;;9.80;99.90;;;;;;5004667;28;20038;-31
2023/10/31 05:51:21;;;;;;;0.80;0.80;;;9.80;99.90;;;;;;5003743;28;20040;-31
2023/10/31 05:53:48;;;;;;;1.00;0.90;;;9.80;99.90;;;;;;5006145;28;20055;-32
2023/10/31 05:56:17;;;;;;;1.05;0.98;;;9.80;99.90;;;;;;5002876;28;20550;-31
2023/10/31 05:58:43;;;;;;;1.40;0.90;;;9.80;99.90;;;;;;5004381;28;20381;-31
2023/10/31 06:01:09;;;;;;;3.67;0.82;;;9.70;99.90;;;;;;4982837;28;20037;-31
2023/10/31 06:03:35;;;;;;;1.80;0.90;;;9.80;99.90;;;;;;5003302;28;20150;-30
2023/10/31 06:06:00;;;;;;;1.52;0.93;;;9.70;99.90;;;;;;5002924;28;20026;-31
2023/10/31 06:08:29;;;;;;;0.90;0.90;;;9.70;99.90;;;;;;5003570;28;20033;-31
2023/10/31 06:10:58;;;;;;;1.05;0.82;;;9.80;99.90;;;;;;4999691;28;20030;-30
2023/10/31 06:13:28;;;;;;;3.75;1.85;;;9.80;99.90;;;;;;5000909;28;20444;-37
2023/10/31 06:15:55;;;;;;;11.80;5.90;;;9.80;99.90;;;;;;4983453;28;20033;-33
2023/10/31 06:18:20;;;;;;;4.38;2.88;;;9.80;99.90;;;;;;4999164;28;20025;-33
2023/10/31 06:20:46;;;;;;;1.77;1.50;;;9.80;99.90;;;;;;4998193;28;20056;-32
2023/10/31 06:23:12;;;;;;;1.30;1.08;;;9.70;99.90;;;;;;5000268;28;20580;-35
2023/10/31 06:25:38;;;;;;;2.30;1.20;;;9.70;99.90;;;;;;5002484;28;20120;-33
2023/10/31 06:28:04;;;;;;;1.10;1.00;;;9.70;99.90;;;;;;4999012;28;20034;-35
2023/10/31 06:30:29;;;;;;;2.35;0.90;;;9.70;99.90;;;;;;4999063;28;20033;-34
2023/10/31 06:32:55;;;;;;;0.77;0.77;;;9.70;99.90;;;;;;4998683;28;20026;-33
2023/10/31 06:35:24;;;;;;;0.60;0.60;;;9.70;99.90;;;;;;4999407;28;20181;-32
2023/10/31 06:37:51;;;;;;;0.85;0.70;;;9.70;99.90;;;;;;5000037;28;20026;-34
2023/10/31 06:40:16;;;;;;;0.82;0.82;;;9.70;99.90;;;;;;4999895;28;20107;-32
2023/10/31 06:42:42;;;;;;;0.90;0.80;;;9.70;99.90;;;;;;5000583;28;20494;-36
2023/10/31 06:45:08;;;;;;;0.80;0.80;;;9.70;99.90;;;;;;4999219;28;20038;-32
2023/10/31 06:47:33;;;;;;;1.38;0.90;;;9.70;99.90;;;;;;5000337;28;20048;-37
2023/10/31 06:49:59;;;;;;;0.70;0.70;;;9.70;99.90;;;;;;4999637;28;20996;-32
2023/10/31 06:52:25;;;;;;;2.20;0.80;;;9.70;99.90;;;;;;4995923;28;20325;-35
2023/10/31 06:54:50;;;;;;;0.63;0.63;;;9.70;99.90;;;;;;4998534;28;20030;-33
2023/10/31 06:57:16;;;;;;;0.75;0.68;;;9.70;99.90;;;;;;4992770;28;20041;-32
2023/10/31 06:59:42;;;;;;;1.30;0.70;;;9.70;99.90;;;;;;5000352;28;20030;-36
2023/10/31 07:02:08;;;;;;;1.98;0.60;;;9.80;99.90;;;;;;5001151;28;20084;-32
2023/10/31 07:04:34;;;;;;;1.95;0.70;;;9.80;99.90;;;;;;4998295;28;20038;-32
2023/10/31 07:07:00;;;;;;;0.52;0.47;;;9.80;99.90;;;;;;4995992;28;20033;-32
2023/10/31 07:09:26;;;;;;;0.60;0.60;;;9.80;99.90;;;;;;5001871;28;20033;-32
2023/10/31 07:11:52;;;;;;;2.95;0.90;;;9.70;99.90;;;;;;4999452;28;20026;-33
2023/10/31 07:14:18;;;;;;;1.98;0.73;;;9.80;99.90;;;;;;4999171;28;20026;-32
2023/10/31 07:16:44;;;;;;;1.17;1.02;;;9.80;99.90;;;;;;4998540;28;20048;-33
2023/10/31 07:19:10;;;;;;;0.63;0.50;;;9.70;99.90;;;;;;4997904;28;20100;-32
2023/10/31 07:21:36;;;;;;;0.93;0.70;;;9.80;99.90;;;;;;5002157;28;20476;-38
2023/10/31 07:24:02;;;;;;;1.02;0.70;;;9.80;99.90;;;;;;4998971;28;20331;-39
2023/10/31 07:26:28;;;;;;;1.65;0.75;;;9.80;99.90;;;;;;5001019;28;20178;-36
2023/10/31 07:28:53;;;;;;;1.55;0.98;;;9.80;99.90;;;;;;4999146;28;20037;-38
2023/10/31 07:31:19;;;;;;;5.68;0.60;;;9.80;99.90;;;;;;4999341;28;20510;-39
2023/10/31 07:33:45;;;;;;;0.93;0.52;;;9.80;99.90;;;;;;4979992;28;20181;-40
2023/10/31 07:36:11;;;;;;;1.45;0.70;;;9.70;99.90;;;;;;4997623;28;20433;-34
2023/10/31 07:38:37;;;;;;;1.48;0.80;;;9.80;99.90;;;;;;4999237;28;20026;-39
2023/10/31 07:41:02;;;;;;;1.25;1.20;;;9.70;99.90;;;;;;5001064;28;20022;-38
2023/10/31 07:43:28;;;;;;;0.93;0.90;;;9.80;99.90;;;;;;4999632;28;20077;-39
2023/10/31 07:45:54;;;;;;;1.75;0.70;;;9.80;99.90;;;;;;4997574;28;20018;-39
2023/10/31 07:48:19;;;;;;;0.73;0.73;;;9.80;99.90;;;;;;4997759;28;20076;-40
2023/10/31 07:50:45;;;;;;;1.02;0.70;;;9.80;99.90;;;;;;4995598;28;20038;-37
2023/10/31 07:53:11;;;;;;;1.60;0.95;;;9.90;99.90;;;;;;4980715;28;20037;-36
2023/10/31 07:55:36;;;;;;;1.27;1.02;;;9.90;99.90;;;;;;5001556;28;20025;-37
2023/10/31 07:58:02;;;;;;;0.88;0.80;;;9.90;99.90;;;;;;4999605;28;20098;-39
2023/10/31 08:00:28;;;;;;;2.33;0.90;;;9.90;99.90;;;;;;5004443;28;20459;-39
2023/10/31 08:02:53;;;;;;;1.67;0.90;;;9.90;99.90;;;;;;5002141;28;20058;-37
2023/10/31 08:05:19;;;;;;;2.47;0.80;;;9.90;99.90;;;;;;5002512;28;20120;-39
2023/10/31 08:07:45;;;;;;;0.80;0.80;;;9.90;99.90;;;;;;4998482;28;20092;-39
2023/10/31 08:10:11;;;;;;;1.58;0.68;;;9.90;99.90;;;;;;5002735;28;20026;-35
2023/10/31 08:12:36;;;;;;;2.28;0.93;;;10.00;99.90;;;;;;5001564;28;20118;-39
2023/10/31 08:15:02;;;;;;;1.98;0.90;;;9.90;99.90;;;;;;4997762;28;20352;-38
2023/10/31 08:17:28;;;;;;;1.67;0.52;;;10.00;99.90;;;;;;4999023;28;20232;-39
2023/10/31 08:19:53;;;;;;;0.98;0.98;;;10.00;99.90;;;;;;4983588;28;20033;-39
2023/10/31 08:22:20;;;;;;;2.58;0.80;;;10.00;99.90;;;;;;5001497;28;20030;-39
2023/10/31 08:24:46;;;;;;;1.05;0.90;;;10.10;99.90;;;;;;4997282;28;20084;-40
2023/10/31 08:27:12;;;;;;;1.05;1.00;;;10.10;99.90;;;;;;5000165;28;20034;-35
2023/10/31 08:29:38;;;;;;;1.13;0.82;;;10.10;99.90;;;;;;4969198;28;20033;-39
2023/10/31 08:32:05;;;;;;;0.63;0.60;;;10.10;99.90;;;;;;5002151;28;20030;-32
2023/10/31 08:34:30;;;;;;;0.98;0.82;;;10.20;99.90;;;;;;5001186;28;20241;-34
2023/10/31 08:36:57;;;;;;;4.43;0.75;;;10.20;99.90;;;;;;5004278;28;20037;-32
2023/10/31 08:39:22;;;;;;;0.95;0.52;;;10.30;99.90;;;;;;5002884;28;20399;-35
2023/10/31 08:41:53;;;;;;;1.95;0.80;;;10.30;99.90;;;;;;5003346;28;20338;-32
2023/10/31 08:44:19;;;;;;;1.27;0.45;;;10.30;99.90;;;;;;5000033;28;20531;-34
2023/10/31 08:46:44;;;;;;;1.10;0.60;;;10.30;99.90;;;;;;5002519;28;20048;-32
2023/10/31 08:49:10;;;;;;;0.60;0.60;;;10.30;99.90;;;;;;5002410;28;20042;-32
2023/10/31 08:51:36;;;;;;;2.15;0.85;;;10.30;99.90;;;;;;5001220;28;20037;-33
2023/10/31 08:54:01;;;;;;;2.47;1.05;;;10.30;99.90;;;;;;4998932;28;20335;-32
2023/10/31 08:56:27;;;;;;;2.05;0.90;;;10.40;99.90;;;;;;4996130;28;20452;-32
2023/10/31 08:58:53;;;;;;;1.75;0.80;;;10.50;99.90;;;;;;4999407;28;20030;-33
2023/10/31 09:01:19;;;;;;;1.23;0.95;;;10.50;99.90;;;;;;5001440;28;20117;-34
2023/10/31 09:03:45;;;;;;;1.20;0.80;;;10.50;99.90;;;;;;4985566;28;20069;-36
2023/10/31 09:06:11;;;;;;;3.20;1.83;;;10.50;99.90;;;;;;5004690;28;20049;-36
2023/10/31 09:08:38;;;;;;;0.90;0.77;;;10.50;99.90;;;;;;5005869;28;20037;-33
2023/10/31 09:11:05;;;;;;;1.87;1.13;;;10.50;99.90;;;;;;4998536;28;20403;-33
2023/10/31 09:13:31;;;;;;;1.25;0.68;;;10.50;99.90;;;;;;5003628;28;20111;-35
2023/10/31 09:16:00;;;;;;;4.72;1.00;;;10.50;99.90;;;;;;5002256;28;20402;-32
2023/10/31 09:18:26;;;;;;;2.03;0.88;;;10.60;99.90;;;;;;5002249;28;20034;-33
2023/10/31 09:20:52;;;;;;;1.23;0.82;;;10.50;99.90;;;;;;5003519;28;20041;-34
2023/10/31 09:23:18;;;;;;;3.08;1.35;;;10.60;99.90;;;;;;5001485;28;20038;-34
2023/10/31 09:25:44;;;;;;;1.02;0.70;;;10.50;99.90;;;;;;4980699;28;20447;-33
2023/10/31 09:28:10;;;;;;;4.20;0.75;;;10.60;99.90;;;;;;5002548;28;20948;-34
2023/10/31 09:30:36;;;;;;;2.53;1.00;;;10.60;99.90;;;;;;5003110;28;20060;-34
2023/10/31 09:33:02;;;;;;;1.98;0.80;;;10.70;99.90;;;;;;5002612;28;20080;-36
2023/10/31 09:35:28;;;;;;;2.50;1.20;;;10.80;99.90;;;;;;5002085;28;20064;-33
2023/10/31 09:37:54;;;;;;;2.53;0.90;;;10.80;99.90;;;;;;5000181;28;20468;-34
2023/10/31 09:40:20;;;;;;;2.45;1.00;;;10.80;99.90;;;;;;5000983;28;20030;-35
2023/10/31 09:42:47;;;;;;;1.65;0.82;;;10.80;99.90;;;;;;5002863;28;20109;-40
2023/10/31 09:45:13;;;;;;;3.10;1.10;;;10.80;99.90;;;;;;4999287;28;20144;-34
2023/10/31 09:47:40;;;;;;;0.80;0.80;;;10.90;99.90;;;;;;4997461;28;20058;-39
2023/10/31 09:50:06;;;;;;;1.30;0.80;;;11.10;99.90;;;;;;5000095;28;20062;-36
2023/10/31 09:52:32;;;;;;;1.77;0.95;;;11.20;99.90;;;;;;4982692;28;20026;-37
2023/10/31 09:54:59;;;;;;;4.63;1.10;;;11.30;99.90;;;;;;5001993;28;20088;-38
2023/10/31 09:57:26;;;;;;;2.25;0.93;;;11.30;99.90;;;;;;4998511;28;20041;-40
2023/10/31 09:59:52;;;;;;;3.38;1.00;;;11.30;99.90;;;;;;5001212;28;20034;-38
2023/10/31 10:02:18;;;;;;;1.73;0.90;;;11.40;99.90;;;;;;4997907;28;20042;-39
2023/10/31 10:04:43;;;;;;;3.00;0.80;;;11.40;99.90;;;;;;4997860;28;20030;-37
2023/10/31 10:07:16;;;;;;;1.58;0.90;;;11.30;99.90;;;;;;4980643;28;20033;-37
2023/10/31 10:09:42;;;;;;;2.80;1.10;;;11.40;99.90;;;;;;5002398;28;21173;-37
2023/10/31 10:12:11;;;;;;;3.63;0.80;;;11.40;99.90;;;;;;5002028;28;20086;-39
2023/10/31 10:14:37;;;;;;;;;;;11.30;99.90;;;;;;4999436;28;20487;-37
2023/10/31 10:17:18;;;;;;;1.42;0.80;;;11.30;99.90;;;;;;4983407;28;20004;-39
2023/10/31 10:19:43;;;;;;;1.42;0.98;;;11.30;99.90;;;;;;5002075;28;20475;-37
2023/10/31 10:22:10;;;;;;;2.17;0.82;;;11.30;99.90;;;;;;5002585;28;20038;-39
2023/10/31 10:24:40;;;;;;;1.90;0.90;;;11.30;99.90;;;;;;4998990;28;20044;-35
2023/10/31 10:27:08;;;;;;;2.10;1.23;;;11.40;99.90;;;;;;4982929;28;20038;-39
2023/10/31 10:29:34;;;;;;;1.17;0.80;;;11.40;99.90;;;;;;4999971;28;20442;-39
2023/10/31 10:32:00;;;;;;;2.47;0.98;;;11.50;99.90;;;;;;4992684;28;20270;-38
2023/10/31 10:34:26;;;;;;;1.73;0.90;;;11.50;99.90;;;;;;4994476;28;20100;-37
2023/10/31 10:36:53;;;;;;;1.05;0.80;;;11.60;99.90;;;;;;4997848;28;20399;-38
2023/10/31 10:39:21;;;;;;;0.70;0.70;;;11.70;99.90;;;;;;5000662;28;20058;-38
2023/10/31 10:41:55;;;;;;;1.95;0.80;;;11.60;99.90;;;;;;4994099;28;20395;-39
2023/10/31 10:44:32;;;;;;;1.83;0.90;;;11.60;99.90;;;;;;4997738;28;20038;-39
2023/10/31 10:47:00;;;;;;;1.02;0.80;;;11.60;99.90;;;;;;4997243;28;20036;-39
2023/10/31 10:49:28;;;;;;;1.00;0.82;;;11.60;99.90;;;;;;4998999;28;20034;-39
2023/10/31 10:52:14;;;;;;;1.40;0.77;;;11.70;99.90;;;;;;4983949;28;20093;-32
2023/10/31 10:54:55;;;;;;;1.20;0.80;;;11.70;99.90;;;;;;5000700;28;20149;-32
2023/10/31 10:57:35;;;;;;;2.28;1.02;;;11.80;99.90;;;;;;4997025;28;20510;-32
2023/10/31 11:00:12;;;;;;;1.92;1.17;;;11.90;99.90;;;;;;4998844;28;20592;-30
2023/10/31 11:02:54;;;;;;;1.95;1.20;;;11.90;99.90;;;;;;5000836;28;20083;-31
2023/10/31 11:05:22;;;;;;;1.17;0.70;;;11.90;99.90;;;;;;4987545;28;20041;-31
2023/10/31 11:07:51;;;;;;;1.67;1.02;;;12.00;99.90;;;;;;4986281;28;20049;-34
2023/10/31 11:10:19;;;;;;;3.00;0.80;;;12.00;99.90;;;;;;4998619;28;20041;-34
2023/10/31 11:12:46;;;;;;;3.72;0.95;;;12.00;99.90;;;;;;5001584;28;20568;-35
2023/10/31 11:15:16;;;;;;;0.80;0.80;;;12.20;99.90;;;;;;4997596;28;20033;-36
2023/10/31 11:17:47;;;;;;;0.85;0.70;;;12.20;99.90;;;;;;4997133;28;20049;-33
2023/10/31 11:20:25;;;;;;;1.15;0.63;;;12.20;99.90;;;;;;4999930;28;20025;-37
2023/10/31 11:23:00;;;;;;;1.40;0.88;;;12.20;99.90;;;;;;5000419;28;20042;-31
2023/10/31 11:25:26;;;;;;;2.30;0.82;;;12.20;99.90;;;;;;4981326;28;20038;-30
2023/10/31 11:27:53;;;;;;;0.85;0.73;;;12.10;99.90;;;;;;4999465;28;20030;-30
2023/10/31 11:30:32;;;;;;;0.90;0.73;;;12.00;99.90;;;;;;4995910;28;20034;-31
2023/10/31 11:33:05;;;;;;;0.98;0.70;;;12.10;99.90;;;;;;4983382;28;20026;-30
2023/10/31 11:35:39;;;;;;;1.08;0.60;;;12.10;99.90;;;;;;5002720;28;20072;-31
2023/10/31 11:38:14;;;;;;;0.88;0.70;;;12.10;99.90;;;;;;5001875;28;20484;-34
2023/10/31 11:40:50;;;;;;;1.95;0.80;;;12.10;99.90;;;;;;5003915;28;20068;-31
2023/10/31 11:43:18;;;;;;;2.88;0.90;;;12.10;99.90;;;;;;4989903;28;20132;-34
2023/10/31 11:45:48;;;;;;;3.55;1.10;;;12.00;99.90;;;;;;5004645;28;20036;-36
2023/10/31 11:48:18;;;;;;;0.47;0.45;;;12.10;99.90;;;;;;4989531;28;20454;-30
2023/10/31 11:50:43;;;;;;;1.55;0.75;;;12.10;99.90;;;;;;5007426;28;20120;-33
2023/10/31 11:53:16;;;;;;;3.22;1.02;;;12.20;99.90;;;;;;5007364;28;20811;-29
2023/10/31 11:55:47;;;;;;;4.40;0.95;;;12.30;99.90;;;;;;5003125;28;20109;-31
2023/10/31 11:58:17;;;;;;;2.35;0.80;;;12.30;99.90;;;;;;4983333;28;20074;-32
2023/10/31 12:00:45;;;;;;;3.47;0.80;;;12.30;99.90;;;;;;4999918;28;20026;-31
2023/10/31 12:03:11;;;;;;;1.75;1.13;;;12.30;99.90;;;;;;4985132;28;20072;-33
2023/10/31 12:05:37;;;;;;;1.00;0.70;;;12.30;99.90;;;;;;4998432;28;20446;-30
2023/10/31 12:08:03;;;;;;;0.98;0.77;;;12.20;99.90;;;;;;4985525;28;20371;-33
2023/10/31 12:10:32;;;;;;;2.42;1.17;;;12.20;99.90;;;;;;5006227;28;20033;-32
2023/10/31 12:12:59;;;;;;;1.42;0.75;;;12.10;99.90;;;;;;4988577;28;20390;-29
2023/10/31 12:15:27;;;;;;;2.03;0.93;;;12.10;99.90;;;;;;5005591;28;20452;-33
2023/10/31 12:17:59;;;;;;;2.85;0.80;;;12.10;99.90;;;;;;5003868;28;20454;-31
2023/10/31 12:20:24;;;;;;;1.70;0.80;;;12.00;99.90;;;;;;5003867;28;20034;-31
2023/10/31 12:23:05;;;;;;;1.17;0.98;;;12.00;99.90;;;;;;5001982;28;20041;-32
2023/10/31 12:25:35;;;;;;;0.93;0.90;;;11.90;99.90;;;;;;4986769;28;20147;-30
2023/10/31 12:28:00;;;;;;;1.10;0.70;;;12.00;99.90;;;;;;5004321;28;20040;-31
2023/10/31 12:30:26;;;;;;;1.20;1.05;;;12.00;99.90;;;;;;5000804;28;20394;-30
2023/10/31 12:32:56;;;;;;;1.55;0.90;;;12.10;99.90;;;;;;5000787;28;20041;-30
2023/10/31 12:35:24;;;;;;;1.55;0.68;;;12.10;99.90;;;;;;4994685;28;20052;-32
2023/10/31 12:37:50;;;;;;;1.48;0.70;;;12.20;99.90;;;;;;5001965;28;20176;-30
2023/10/31 12:40:20;;;;;;;0.80;0.70;;;12.10;99.90;;;;;;5001458;28;20566;-33
2023/10/31 12:42:48;;;;;;;2.05;0.90;;;12.10;99.90;;;;;;5001791;28;20034;-30
2023/10/31 12:45:14;;;;;;;2.28;0.90;;;12.10;99.90;;;;;;5000734;28;20041;-33
2023/10/31 12:47:40;;;;;;;0.80;0.73;;;12.00;99.90;;;;;;4998101;28;20115;-36